createdAt,value
2022-07-25T00:02:51.053Z,0.00
2022-07-25T00:08:23.003Z,0.00
2022-07-25T00:13:54.333Z,0.00
2022-07-25T00:19:25.859Z,0.00
2022-07-25T00:24:57.533Z,0.00
2022-07-25T00:30:29.340Z,0.00
2022-07-25T00:36:01.473Z,0.00
2022-07-25T00:41:33.297Z,0.00
2022-07-25T00:47:05.437Z,0.00
2022-07-25T00:52:36.921Z,0.00
2022-07-25T00:58:08.568Z,0.00
2022-07-25T03:04:20.638Z,1.00
2022-07-25T03:09:52.395Z,3.00
2022-07-25T03:15:24.248Z,8.00
2022-07-25T03:20:56.127Z,18.00
2022-07-25T03:26:28.012Z,36.00
2022-07-25T03:31:59.801Z,65.00
2022-07-25T03:37:31.561Z,107.00
2022-07-25T03:43:03.366Z,167.00
2022-07-25T03:48:35.363Z,260.00
2022-07-25T03:54:07.927Z,441.00
2022-07-25T03:59:39.497Z,746.00
2022-07-25T04:05:11.565Z,1120.00
2022-07-25T04:10:43.046Z,1658.00
2022-07-25T04:16:15.098Z,1114.00
2022-07-25T04:21:46.803Z,595.00
2022-07-25T04:27:18.514Z,228.00
2022-07-25T04:32:50.325Z,33.00
2022-07-25T04:38:21.956Z,0.00
2022-07-25T04:43:53.864Z,0.00
2022-07-25T04:49:25.442Z,0.00
2022-07-25T04:54:57.471Z,0.00
2022-07-25T05:00:29.579Z,0.00
2022-07-25T05:06:01.399Z,0.00
2022-07-25T05:11:33.100Z,1727.00
2022-07-25T05:17:04.821Z,3061.00
2022-07-25T05:22:36.715Z,3186.00
2022-07-25T05:28:08.436Z,3273.00
2022-07-25T05:33:40.139Z,3224.00
2022-07-25T05:39:11.991Z,3145.00
2022-07-25T05:44:43.637Z,2676.00
2022-07-25T05:50:15.562Z,0.00
2022-07-25T05:55:47.389Z,0.00
2022-07-25T06:01:19.148Z,0.00
2022-07-25T06:06:50.878Z,0.00
2022-07-25T06:12:24.252Z,0.00
2022-07-25T06:17:54.217Z,0.00
2022-07-25T06:23:27.774Z,0.00
2022-07-25T06:28:57.680Z,0.00
2022-07-25T06:34:29.101Z,0.00
2022-07-25T06:40:01.066Z,0.00
2022-07-25T06:45:32.721Z,0.00
2022-07-25T06:51:04.518Z,0.00
2022-07-25T06:53:15.874Z,0.00
2022-07-25T07:04:16.500Z,0.00
2022-07-25T07:09:47.997Z,0.00
2022-07-25T07:15:20.235Z,0.00
2022-07-25T07:20:51.804Z,0.00
2022-07-25T07:26:23.603Z,0.00
2022-07-25T07:31:57.618Z,0.00
2022-07-25T07:37:33.677Z,0.00
2022-07-25T07:43:00.895Z,0.00
2022-07-25T07:48:33.015Z,0.00
2022-07-25T07:54:04.458Z,0.00
2022-07-25T07:59:36.438Z,0.00
2022-07-25T08:10:37.300Z,0.00
2022-07-25T08:16:09.164Z,0.00
2022-07-25T08:23:59.936Z,0.00
2022-07-25T08:35:01.333Z,0.00
2022-07-25T08:40:33.178Z,0.00
2022-07-25T08:46:04.987Z,0.00
2022-07-25T08:51:36.763Z,0.00
2022-07-25T08:57:08.501Z,0.00
2022-07-25T09:02:40.458Z,0.00
2022-07-25T09:13:41.092Z,0.00
2022-07-25T09:19:13.591Z,0.00
2022-07-25T09:24:45.360Z,0.00
2022-07-25T09:30:17.145Z,0.00
2022-07-25T09:35:48.892Z,1592.00
2022-07-25T09:41:20.380Z,1827.00
2022-07-25T09:46:51.935Z,1906.00
2022-07-25T09:52:23.485Z,1917.00
2022-07-25T09:58:17.411Z,1887.00
2022-07-25T10:03:49.456Z,1862.00
2022-07-25T10:09:21.216Z,1864.00
2022-07-25T10:14:52.682Z,1926.00
2022-07-25T10:20:24.106Z,2012.00
2022-07-25T10:25:55.836Z,2013.00
2022-07-25T10:31:27.608Z,2069.00
2022-07-25T10:36:59.148Z,2125.00
2022-07-25T10:42:30.880Z,2115.00
2022-07-25T10:48:02.803Z,2180.00
2022-07-25T10:53:34.396Z,2238.00
2022-07-25T10:59:06.364Z,2301.00
2022-07-25T11:04:37.990Z,2328.00
2022-07-25T11:10:09.697Z,2353.00
2022-07-25T11:15:41.635Z,2387.00
2022-07-25T11:21:13.348Z,2404.00
2022-07-25T11:26:45.185Z,2468.00
2022-07-25T11:32:17.191Z,2494.00
2022-07-25T11:37:49.005Z,2542.00
2022-07-25T11:43:20.522Z,2587.00
2022-07-25T11:48:52.414Z,2590.00
2022-07-25T11:54:24.238Z,2629.00
2022-07-25T11:59:56.023Z,2657.00
2022-07-25T12:05:27.721Z,2683.00
2022-07-25T12:10:59.552Z,2651.00
2022-07-25T12:16:31.320Z,2734.00
2022-07-25T12:22:03.183Z,2748.00
2022-07-25T12:27:34.967Z,2748.00
2022-07-25T12:33:06.827Z,2750.00
2022-07-25T12:38:38.648Z,2784.00
2022-07-25T12:44:10.147Z,2750.00
2022-07-25T12:49:41.814Z,2817.00
2022-07-25T12:55:13.511Z,2811.00
2022-07-25T13:00:45.208Z,2748.00
2022-07-25T13:06:17.303Z,2802.00
2022-07-25T13:11:48.896Z,2770.00
2022-07-25T13:17:26.514Z,2708.00
2022-07-25T13:22:52.215Z,2657.00
2022-07-25T13:28:23.926Z,2615.00
2022-07-25T13:33:55.813Z,2584.00
2022-07-25T13:39:27.231Z,2541.00
2022-07-25T13:44:58.837Z,2524.00
2022-07-25T13:50:30.515Z,2476.00
2022-07-25T13:56:02.008Z,2460.00
2022-07-25T14:01:33.923Z,2449.00
2022-07-25T14:07:05.112Z,2360.00
2022-07-25T14:18:08.297Z,2344.00
2022-07-25T14:23:40.120Z,2373.00
2022-07-25T14:29:11.757Z,2330.00
2022-07-25T14:34:43.330Z,2311.00
2022-07-25T14:40:15.113Z,2315.00
2022-07-25T14:45:46.800Z,2290.00
2022-07-25T14:51:18.813Z,2296.00
2022-07-25T14:56:50.360Z,2311.00
2022-07-25T15:02:21.698Z,2270.00
2022-07-25T15:07:53.637Z,2264.00
2022-07-25T15:13:31.435Z,2256.00
2022-07-25T15:24:29.518Z,2176.00
2022-07-25T15:35:30.882Z,2183.00
2022-07-25T15:41:02.435Z,2173.00
2022-07-25T15:46:34.131Z,2130.00
2022-07-25T15:52:05.522Z,2117.00
2022-07-25T15:57:37.056Z,2131.00
2022-07-25T16:03:14.360Z,2130.00
2022-07-25T16:08:46.140Z,2134.00
2022-07-25T16:14:17.850Z,2125.00
2022-07-25T16:19:49.386Z,2109.00
2022-07-25T16:25:20.961Z,2077.00
2022-07-25T16:30:52.833Z,2059.00
2022-07-25T16:41:56.525Z,2029.00
2022-07-25T16:47:28.382Z,2018.00
2022-07-25T16:52:59.873Z,1982.00
2022-07-25T16:58:31.612Z,1968.00
2022-07-25T17:04:03.440Z,1924.00
2022-07-25T17:09:35.363Z,1860.00
2022-07-25T17:15:07.499Z,1783.00
2022-07-25T17:20:39.224Z,1736.00
2022-07-25T17:26:10.996Z,1648.00
2022-07-25T17:31:42.512Z,1572.00
2022-07-25T17:37:14.299Z,1724.00
2022-07-25T17:42:47.988Z,1840.00
2022-07-25T17:53:49.603Z,1566.00
2022-07-25T18:10:22.807Z,805.00
2022-07-25T18:15:54.918Z,736.00
2022-07-25T18:21:26.330Z,687.00
2022-07-25T18:26:58.131Z,614.00
2022-07-25T18:32:29.637Z,524.00
2022-07-25T18:49:00.703Z,230.00
2022-07-25T18:54:32.469Z,141.00
2022-07-25T19:00:04.103Z,49.00
2022-07-25T19:05:36.065Z,20.00
2022-07-25T19:11:07.349Z,11.00
2022-07-25T19:16:39.214Z,6.00
2022-07-25T19:27:40.345Z,1.00
2022-07-25T19:33:11.937Z,0.00
2022-07-25T19:38:43.924Z,0.00
2022-07-25T19:49:45.193Z,0.00
2022-07-25T19:55:17.259Z,0.00
2022-07-25T20:00:49.297Z,0.00
2022-07-25T20:14:14.781Z,0.00
2022-07-25T20:19:47.702Z,0.00
2022-07-25T20:25:19.889Z,0.00
2022-07-25T20:30:52.452Z,0.00
2022-07-25T20:36:24.487Z,0.00
2022-07-25T20:41:56.517Z,0.00
2022-07-25T20:47:28.520Z,0.00
2022-07-25T20:53:00.330Z,0.00
2022-07-25T21:04:07.048Z,0.00
2022-07-25T21:09:33.801Z,0.00
2022-07-25T21:17:27.186Z,0.00
2022-07-25T21:22:59.473Z,0.00
2022-07-25T21:28:31.212Z,0.00
2022-07-25T21:34:03.138Z,0.00
2022-07-25T21:39:35.051Z,0.00
2022-07-25T21:45:06.561Z,0.00
2022-07-25T21:50:42.172Z,0.00
2022-07-25T21:56:10.169Z,0.00
2022-07-25T22:01:42.107Z,0.00
2022-07-25T22:07:13.736Z,0.00
2022-07-25T22:12:45.978Z,0.00
2022-07-25T22:18:17.826Z,0.00
2022-07-25T22:23:49.641Z,0.00
2022-07-25T22:29:21.258Z,0.00
2022-07-25T22:34:53.027Z,0.00
2022-07-25T22:40:24.964Z,0.00
2022-07-25T22:45:57.047Z,0.00
2022-07-25T22:51:28.482Z,0.00
2022-07-25T22:57:00.691Z,0.00
2022-07-25T23:02:32.320Z,0.00
2022-07-25T23:13:33.523Z,0.00
2022-07-25T23:24:37.770Z,0.00
2022-07-25T23:30:06.874Z,0.00
2022-07-25T23:35:39.116Z,0.00
2022-07-25T23:41:10.758Z,0.00
2022-07-25T23:52:12.164Z,0.00
2022-07-25T23:57:43.773Z,0.00
